Pojoaque, New Mexico
Current Conditions -  °F | °C
As of 12:53 AM on Wednesday 26 Nov 2014 (Local Time) from KSAF Reporting Station
Clear Clear  
Wind Chill: -4°   Ceiling: Unl
Heat Index:   Visibility: 10mi
Dew Point: -11°   Wind: 14mph
Humidity: 42%   Direction: 350°N
Pressure: 30.25"   Gusts: NA
Location:  35.7017°N, 105.921°W
Report Text: KSAF 260753Z AUTO 35012KT 10SM CLR 01/M11 A3025 RMK AO2 SLP228 T00111106
Loading
Personal Weather Stations






























Interactive Weather Map New forecast layout! Learn more

10-Day Weather Forecast

Advertisements
Track Severe Weather on mobile